sensor_id;sensor_type;location;lat;lon;timestamp;P1;durP1;ratioP1;P2;durP2;ratioP2
14326;SDS011;7247;53.330;-1.180;2024-01-30T00:00:57;51.23;;;30.40;;
14326;SDS011;7247;53.330;-1.180;2024-01-30T00:03:23;58.97;;;32.20;;
14326;SDS011;7247;53.330;-1.180;2024-01-30T00:05:49;56.47;;;32.10;;
14326;SDS011;7247;53.330;-1.180;2024-01-30T00:08:17;53.40;;;31.17;;
14326;SDS011;7247;53.330;-1.180;2024-01-30T00:10:44;57.40;;;31.47;;
14326;SDS011;7247;53.330;-1.180;2024-01-30T00:13:10;54.10;;;31.80;;
14326;SDS011;7247;53.330;-1.180;2024-01-30T00:15:39;59.30;;;31.87;;
14326;SDS011;7247;53.330;-1.180;2024-01-30T00:18:05;53.83;;;30.77;;
14326;SDS011;7247;53.330;-1.180;2024-01-30T00:20:32;58.33;;;31.10;;
14326;SDS011;7247;53.330;-1.180;2024-01-30T00:22:58;54.83;;;30.97;;
14326;SDS011;7247;53.330;-1.180;2024-01-30T00:25:26;56.00;;;30.40;;
14326;SDS011;7247;53.330;-1.180;2024-01-30T00:27:52;50.80;;;29.53;;
14326;SDS011;7247;53.330;-1.180;2024-01-30T00:30:20;49.33;;;29.17;;
14326;SDS011;7247;53.330;-1.180;2024-01-30T00:32:46;53.70;;;30.10;;
14326;SDS011;7247;53.330;-1.180;2024-01-30T00:35:12;47.93;;;29.90;;
14326;SDS011;7247;53.330;-1.180;2024-01-30T00:37:39;53.40;;;30.67;;
14326;SDS011;7247;53.330;-1.180;2024-01-30T00:40:06;51.27;;;29.53;;
14326;SDS011;7247;53.330;-1.180;2024-01-30T00:42:34;48.90;;;28.80;;
14326;SDS011;7247;53.330;-1.180;2024-01-30T00:45:00;52.80;;;28.80;;
14326;SDS011;7247;53.330;-1.180;2024-01-30T00:47:27;47.77;;;29.07;;
14326;SDS011;7247;53.330;-1.180;2024-01-30T00:49:54;49.47;;;29.00;;
14326;SDS011;7247;53.330;-1.180;2024-01-30T00:52:20;47.83;;;28.60;;
14326;SDS011;7247;53.330;-1.180;2024-01-30T00:54:47;50.03;;;30.00;;
14326;SDS011;7247;53.330;-1.180;2024-01-30T00:57:13;49.73;;;30.37;;
14326;SDS011;7247;53.330;-1.180;2024-01-30T00:59:41;49.10;;;29.80;;
14326;SDS011;7247;53.330;-1.180;2024-01-30T01:02:07;50.90;;;30.00;;
14326;SDS011;7247;53.330;-1.180;2024-01-30T01:04:34;51.27;;;29.50;;
14326;SDS011;7247;53.330;-1.180;2024-01-30T01:07:00;52.53;;;29.13;;
14326;SDS011;7247;53.330;-1.180;2024-01-30T01:09:27;48.57;;;28.47;;
14326;SDS011;7247;53.330;-1.180;2024-01-30T01:11:53;48.03;;;29.47;;
14326;SDS011;7247;53.330;-1.180;2024-01-30T01:14:20;47.57;;;28.33;;
14326;SDS011;7247;53.330;-1.180;2024-01-30T01:16:47;45.13;;;29.20;;
14326;SDS011;7247;53.330;-1.180;2024-01-30T01:19:14;46.60;;;28.23;;
14326;SDS011;7247;53.330;-1.180;2024-01-30T01:21:40;46.37;;;27.90;;
14326;SDS011;7247;53.330;-1.180;2024-01-30T01:24:07;46.57;;;29.13;;
14326;SDS011;7247;53.330;-1.180;2024-01-30T01:26:33;50.77;;;27.07;;
14326;SDS011;7247;53.330;-1.180;2024-01-30T01:29:00;47.20;;;26.83;;
14326;SDS011;7247;53.330;-1.180;2024-01-30T01:31:26;50.27;;;25.07;;
14326;SDS011;7247;53.330;-1.180;2024-01-30T01:33:56;48.90;;;25.37;;
14326;SDS011;7247;53.330;-1.180;2024-01-30T01:36:22;43.40;;;24.40;;
14326;SDS011;7247;53.330;-1.180;2024-01-30T01:38:49;46.10;;;24.53;;
14326;SDS011;7247;53.330;-1.180;2024-01-30T01:41:15;43.07;;;23.00;;
14326;SDS011;7247;53.330;-1.180;2024-01-30T01:43:41;37.20;;;20.93;;
14326;SDS011;7247;53.330;-1.180;2024-01-30T01:46:08;35.23;;;21.67;;
14326;SDS011;7247;53.330;-1.180;2024-01-30T01:48:35;44.07;;;22.57;;
14326;SDS011;7247;53.330;-1.180;2024-01-30T01:51:03;40.63;;;22.13;;
14326;SDS011;7247;53.330;-1.180;2024-01-30T01:53:29;34.67;;;21.93;;
14326;SDS011;7247;53.330;-1.180;2024-01-30T01:55:56;38.37;;;21.43;;
14326;SDS011;7247;53.330;-1.180;2024-01-30T01:58:23;35.47;;;20.33;;
14326;SDS011;7247;53.330;-1.180;2024-01-30T02:00:53;41.53;;;21.93;;
14326;SDS011;7247;53.330;-1.180;2024-01-30T02:03:20;33.37;;;20.80;;
14326;SDS011;7247;53.330;-1.180;2024-01-30T02:05:47;38.53;;;20.60;;
14326;SDS011;7247;53.330;-1.180;2024-01-30T02:08:15;36.00;;;19.77;;
14326;SDS011;7247;53.330;-1.180;2024-01-30T02:10:42;36.07;;;19.47;;
14326;SDS011;7247;53.330;-1.180;2024-01-30T02:13:08;37.53;;;20.07;;
14326;SDS011;7247;53.330;-1.180;2024-01-30T02:15:35;36.27;;;18.30;;
14326;SDS011;7247;53.330;-1.180;2024-01-30T02:18:01;32.23;;;19.17;;
14326;SDS011;7247;53.330;-1.180;2024-01-30T02:20:28;31.20;;;18.27;;
14326;SDS011;7247;53.330;-1.180;2024-01-30T02:22:57;31.00;;;18.73;;
14326;SDS011;7247;53.330;-1.180;2024-01-30T02:25:36;38.57;;;18.80;;
14326;SDS011;7247;53.330;-1.180;2024-01-30T02:28:03;35.30;;;17.90;;
14326;SDS011;7247;53.330;-1.180;2024-01-30T02:30:30;30.40;;;17.27;;
14326;SDS011;7247;53.330;-1.180;2024-01-30T02:32:56;29.77;;;17.23;;
14326;SDS011;7247;53.330;-1.180;2024-01-30T02:35:22;29.33;;;16.77;;
14326;SDS011;7247;53.330;-1.180;2024-01-30T02:37:49;26.93;;;16.40;;
14326;SDS011;7247;53.330;-1.180;2024-01-30T02:40:17;30.97;;;16.70;;
14326;SDS011;7247;53.330;-1.180;2024-01-30T02:42:43;31.53;;;16.23;;
14326;SDS011;7247;53.330;-1.180;2024-01-30T02:45:10;27.50;;;16.20;;
14326;SDS011;7247;53.330;-1.180;2024-01-30T02:47:37;24.37;;;15.20;;
14326;SDS011;7247;53.330;-1.180;2024-01-30T02:50:03;30.83;;;15.77;;
14326;SDS011;7247;53.330;-1.180;2024-01-30T02:52:30;30.53;;;16.30;;
14326;SDS011;7247;53.330;-1.180;2024-01-30T02:54:56;25.60;;;15.47;;
14326;SDS011;7247;53.330;-1.180;2024-01-30T02:57:24;29.87;;;15.20;;
14326;SDS011;7247;53.330;-1.180;2024-01-30T02:59:51;23.57;;;14.87;;
14326;SDS011;7247;53.330;-1.180;2024-01-30T03:02:17;26.47;;;15.60;;
14326;SDS011;7247;53.330;-1.180;2024-01-30T03:04:43;25.53;;;15.13;;
14326;SDS011;7247;53.330;-1.180;2024-01-30T03:07:10;28.13;;;16.17;;
14326;SDS011;7247;53.330;-1.180;2024-01-30T03:09:36;26.43;;;16.43;;
14326;SDS011;7247;53.330;-1.180;2024-01-30T03:12:03;24.13;;;15.97;;
14326;SDS011;7247;53.330;-1.180;2024-01-30T03:14:31;68.50;;;53.17;;
14326;SDS011;7247;53.330;-1.180;2024-01-30T03:16:58;21.37;;;15.73;;
14326;SDS011;7247;53.330;-1.180;2024-01-30T03:19:24;14.97;;;10.07;;
14326;SDS011;7247;53.330;-1.180;2024-01-30T03:21:51;10.97;;;7.17;;
14326;SDS011;7247;53.330;-1.180;2024-01-30T03:24:17;5.20;;;4.43;;
14326;SDS011;7247;53.330;-1.180;2024-01-30T03:26:43;3.57;;;3.20;;
14326;SDS011;7247;53.330;-1.180;2024-01-30T03:29:10;3.60;;;2.80;;
14326;SDS011;7247;53.330;-1.180;2024-01-30T03:31:38;3.47;;;2.37;;
14326;SDS011;7247;53.330;-1.180;2024-01-30T03:34:04;3.63;;;3.00;;
14326;SDS011;7247;53.330;-1.180;2024-01-30T03:36:31;14.10;;;9.80;;
14326;SDS011;7247;53.330;-1.180;2024-01-30T03:38:59;17.53;;;12.13;;
14326;SDS011;7247;53.330;-1.180;2024-01-30T03:41:26;21.70;;;14.40;;
14326;SDS011;7247;53.330;-1.180;2024-01-30T03:43:52;23.13;;;15.87;;
14326;SDS011;7247;53.330;-1.180;2024-01-30T03:46:19;27.80;;;16.90;;
14326;SDS011;7247;53.330;-1.180;2024-01-30T03:48:46;25.80;;;16.33;;
14326;SDS011;7247;53.330;-1.180;2024-01-30T03:51:13;22.00;;;15.70;;
14326;SDS011;7247;53.330;-1.180;2024-01-30T03:53:41;25.77;;;15.90;;
14326;SDS011;7247;53.330;-1.180;2024-01-30T03:56:07;24.53;;;15.33;;
14326;SDS011;7247;53.330;-1.180;2024-01-30T03:58:34;28.13;;;16.10;;
14326;SDS011;7247;53.330;-1.180;2024-01-30T04:01:00;23.27;;;15.23;;
14326;SDS011;7247;53.330;-1.180;2024-01-30T04:03:27;23.13;;;14.30;;
14326;SDS011;7247;53.330;-1.180;2024-01-30T04:05:54;21.67;;;13.73;;
14326;SDS011;7247;53.330;-1.180;2024-01-30T04:08:21;23.73;;;14.77;;
14326;SDS011;7247;53.330;-1.180;2024-01-30T04:10:47;20.97;;;14.00;;
14326;SDS011;7247;53.330;-1.180;2024-01-30T04:13:14;22.77;;;14.80;;
14326;SDS011;7247;53.330;-1.180;2024-01-30T04:15:40;21.63;;;13.77;;
14326;SDS011;7247;53.330;-1.180;2024-01-30T04:18:07;24.00;;;15.20;;
14326;SDS011;7247;53.330;-1.180;2024-01-30T04:20:33;21.97;;;14.83;;
14326;SDS011;7247;53.330;-1.180;2024-01-30T04:23:01;23.63;;;15.07;;
14326;SDS011;7247;53.330;-1.180;2024-01-30T04:25:27;21.87;;;13.67;;
14326;SDS011;7247;53.330;-1.180;2024-01-30T04:27:54;23.10;;;13.90;;
14326;SDS011;7247;53.330;-1.180;2024-01-30T04:30:20;24.20;;;14.53;;
14326;SDS011;7247;53.330;-1.180;2024-01-30T04:32:47;18.17;;;13.17;;
14326;SDS011;7247;53.330;-1.180;2024-01-30T04:35:13;21.73;;;13.97;;
14326;SDS011;7247;53.330;-1.180;2024-01-30T04:37:39;20.13;;;13.33;;
14326;SDS011;7247;53.330;-1.180;2024-01-30T04:40:08;16.33;;;11.30;;
14326;SDS011;7247;53.330;-1.180;2024-01-30T04:42:34;13.87;;;10.13;;
14326;SDS011;7247;53.330;-1.180;2024-01-30T04:45:01;9.63;;;7.17;;
14326;SDS011;7247;53.330;-1.180;2024-01-30T04:47:27;6.77;;;5.43;;
14326;SDS011;7247;53.330;-1.180;2024-01-30T04:49:54;5.03;;;4.07;;
14326;SDS011;7247;53.330;-1.180;2024-01-30T04:52:21;4.87;;;3.70;;
14326;SDS011;7247;53.330;-1.180;2024-01-30T04:54:47;5.50;;;4.50;;
14326;SDS011;7247;53.330;-1.180;2024-01-30T04:57:15;7.53;;;5.80;;
14326;SDS011;7247;53.330;-1.180;2024-01-30T04:59:42;8.90;;;7.00;;
14326;SDS011;7247;53.330;-1.180;2024-01-30T05:02:08;10.47;;;7.60;;
14326;SDS011;7247;53.330;-1.180;2024-01-30T05:04:35;13.03;;;9.43;;
14326;SDS011;7247;53.330;-1.180;2024-01-30T05:07:01;13.87;;;8.40;;
14326;SDS011;7247;53.330;-1.180;2024-01-30T05:09:28;15.83;;;10.17;;
14326;SDS011;7247;53.330;-1.180;2024-01-30T05:11:54;14.20;;;10.00;;
14326;SDS011;7247;53.330;-1.180;2024-01-30T05:14:22;12.93;;;9.63;;
14326;SDS011;7247;53.330;-1.180;2024-01-30T05:16:48;13.30;;;9.60;;
14326;SDS011;7247;53.330;-1.180;2024-01-30T05:19:15;11.87;;;8.30;;
14326;SDS011;7247;53.330;-1.180;2024-01-30T05:21:42;10.47;;;7.90;;
14326;SDS011;7247;53.330;-1.180;2024-01-30T05:24:08;10.20;;;7.57;;
14326;SDS011;7247;53.330;-1.180;2024-01-30T05:26:35;8.90;;;6.90;;
14326;SDS011;7247;53.330;-1.180;2024-01-30T05:29:01;8.77;;;6.27;;
14326;SDS011;7247;53.330;-1.180;2024-01-30T05:31:29;7.40;;;6.17;;
14326;SDS011;7247;53.330;-1.180;2024-01-30T05:33:56;5.63;;;4.70;;
14326;SDS011;7247;53.330;-1.180;2024-01-30T05:36:22;4.23;;;3.83;;
14326;SDS011;7247;53.330;-1.180;2024-01-30T05:38:49;4.80;;;3.57;;
14326;SDS011;7247;53.330;-1.180;2024-01-30T05:41:15;4.57;;;3.87;;
14326;SDS011;7247;53.330;-1.180;2024-01-30T05:43:42;3.50;;;3.20;;
14326;SDS011;7247;53.330;-1.180;2024-01-30T05:46:08;3.70;;;3.33;;
14326;SDS011;7247;53.330;-1.180;2024-01-30T05:48:36;3.20;;;2.90;;
14326;SDS011;7247;53.330;-1.180;2024-01-30T05:51:02;2.93;;;2.73;;
14326;SDS011;7247;53.330;-1.180;2024-01-30T05:53:29;3.20;;;2.90;;
14326;SDS011;7247;53.330;-1.180;2024-01-30T05:55:56;4.60;;;3.20;;
14326;SDS011;7247;53.330;-1.180;2024-01-30T05:58:22;3.50;;;3.20;;
14326;SDS011;7247;53.330;-1.180;2024-01-30T06:00:49;3.50;;;3.20;;
14326;SDS011;7247;53.330;-1.180;2024-01-30T06:03:15;2.83;;;2.63;;
14326;SDS011;7247;53.330;-1.180;2024-01-30T06:05:43;3.00;;;2.80;;
14326;SDS011;7247;53.330;-1.180;2024-01-30T06:08:10;3.47;;;3.17;;
14326;SDS011;7247;53.330;-1.180;2024-01-30T06:10:36;4.03;;;3.23;;
14326;SDS011;7247;53.330;-1.180;2024-01-30T06:13:05;3.70;;;3.27;;
14326;SDS011;7247;53.330;-1.180;2024-01-30T06:15:32;3.50;;;2.80;;
14326;SDS011;7247;53.330;-1.180;2024-01-30T06:17:58;3.50;;;3.20;;
14326;SDS011;7247;53.330;-1.180;2024-01-30T06:20:25;3.67;;;3.30;;
14326;SDS011;7247;53.330;-1.180;2024-01-30T06:22:52;3.57;;;3.27;;
14326;SDS011;7247;53.330;-1.180;2024-01-30T06:25:19;3.30;;;3.00;;
14326;SDS011;7247;53.330;-1.180;2024-01-30T06:27:45;3.47;;;3.17;;
14326;SDS011;7247;53.330;-1.180;2024-01-30T06:30:12;3.60;;;3.30;;
14326;SDS011;7247;53.330;-1.180;2024-01-30T06:32:39;3.50;;;3.20;;
14326;SDS011;7247;53.330;-1.180;2024-01-30T06:35:05;3.03;;;2.73;;
14326;SDS011;7247;53.330;-1.180;2024-01-30T06:37:32;3.30;;;3.00;;
14326;SDS011;7247;53.330;-1.180;2024-01-30T06:40:00;3.73;;;3.37;;
14326;SDS011;7247;53.330;-1.180;2024-01-30T06:42:26;3.17;;;2.87;;
14326;SDS011;7247;53.330;-1.180;2024-01-30T06:44:53;2.80;;;2.60;;
14326;SDS011;7247;53.330;-1.180;2024-01-30T06:47:19;2.90;;;2.70;;
14326;SDS011;7247;53.330;-1.180;2024-01-30T06:49:45;3.77;;;2.93;;
14326;SDS011;7247;53.330;-1.180;2024-01-30T06:52:12;2.57;;;2.37;;
14326;SDS011;7247;53.330;-1.180;2024-01-30T06:54:39;2.77;;;2.57;;
14326;SDS011;7247;53.330;-1.180;2024-01-30T06:57:07;3.23;;;2.80;;
14326;SDS011;7247;53.330;-1.180;2024-01-30T06:59:36;2.90;;;2.70;;
14326;SDS011;7247;53.330;-1.180;2024-01-30T07:02:06;2.87;;;2.63;;
14326;SDS011;7247;53.330;-1.180;2024-01-30T07:04:33;3.40;;;2.67;;
14326;SDS011;7247;53.330;-1.180;2024-01-30T07:06:59;3.00;;;2.70;;
14326;SDS011;7247;53.330;-1.180;2024-01-30T07:09:26;3.40;;;3.10;;
14326;SDS011;7247;53.330;-1.180;2024-01-30T07:11:53;3.43;;;3.13;;
14326;SDS011;7247;53.330;-1.180;2024-01-30T07:14:22;3.03;;;2.73;;
14326;SDS011;7247;53.330;-1.180;2024-01-30T07:16:48;3.50;;;3.20;;
14326;SDS011;7247;53.330;-1.180;2024-01-30T07:19:15;3.97;;;3.10;;
14326;SDS011;7247;53.330;-1.180;2024-01-30T07:21:41;3.30;;;3.00;;
14326;SDS011;7247;53.330;-1.180;2024-01-30T07:24:08;3.90;;;3.40;;
14326;SDS011;7247;53.330;-1.180;2024-01-30T07:26:34;3.37;;;3.07;;
14326;SDS011;7247;53.330;-1.180;2024-01-30T07:29:01;3.63;;;3.33;;
14326;SDS011;7247;53.330;-1.180;2024-01-30T07:31:29;3.77;;;3.37;;
14326;SDS011;7247;53.330;-1.180;2024-01-30T07:33:56;3.50;;;3.20;;
14326;SDS011;7247;53.330;-1.180;2024-01-30T07:36:22;3.57;;;3.23;;
14326;SDS011;7247;53.330;-1.180;2024-01-30T07:38:49;3.80;;;3.50;;
14326;SDS011;7247;53.330;-1.180;2024-01-30T07:41:15;3.60;;;3.10;;
14326;SDS011;7247;53.330;-1.180;2024-01-30T07:43:42;4.93;;;3.30;;
14326;SDS011;7247;53.330;-1.180;2024-01-30T07:46:09;3.50;;;3.20;;
14326;SDS011;7247;53.330;-1.180;2024-01-30T07:48:37;4.07;;;3.67;;
14326;SDS011;7247;53.330;-1.180;2024-01-30T07:51:04;3.67;;;3.37;;
14326;SDS011;7247;53.330;-1.180;2024-01-30T07:53:30;3.37;;;3.07;;
14326;SDS011;7247;53.330;-1.180;2024-01-30T07:55:56;3.50;;;3.20;;
14326;SDS011;7247;53.330;-1.180;2024-01-30T07:58:23;4.57;;;3.10;;
14326;SDS011;7247;53.330;-1.180;2024-01-30T08:00:52;3.80;;;3.33;;
14326;SDS011;7247;53.330;-1.180;2024-01-30T08:03:18;4.20;;;3.63;;
14326;SDS011;7247;53.330;-1.180;2024-01-30T08:05:46;3.83;;;3.43;;
14326;SDS011;7247;53.330;-1.180;2024-01-30T08:08:13;4.50;;;4.10;;
14326;SDS011;7247;53.330;-1.180;2024-01-30T08:10:39;4.17;;;3.77;;
14326;SDS011;7247;53.330;-1.180;2024-01-30T08:13:05;4.23;;;3.50;;
14326;SDS011;7247;53.330;-1.180;2024-01-30T08:15:34;3.87;;;2.63;;
14326;SDS011;7247;53.330;-1.180;2024-01-30T08:18:00;3.07;;;2.80;;
14326;SDS011;7247;53.330;-1.180;2024-01-30T08:20:26;3.23;;;2.93;;
14326;SDS011;7247;53.330;-1.180;2024-01-30T08:22:54;4.03;;;2.90;;
14326;SDS011;7247;53.330;-1.180;2024-01-30T08:25:21;2.70;;;2.50;;
14326;SDS011;7247;53.330;-1.180;2024-01-30T08:27:47;3.50;;;2.33;;
14326;SDS011;7247;53.330;-1.180;2024-01-30T08:30:14;2.63;;;1.80;;
14326;SDS011;7247;53.330;-1.180;2024-01-30T08:32:41;4.47;;;1.50;;
14326;SDS011;7247;53.330;-1.180;2024-01-30T08:35:07;3.17;;;1.70;;
14326;SDS011;7247;53.330;-1.180;2024-01-30T08:37:34;2.33;;;1.63;;
14326;SDS011;7247;53.330;-1.180;2024-01-30T08:40:02;1.93;;;1.70;;
14326;SDS011;7247;53.330;-1.180;2024-01-30T08:42:29;1.70;;;1.60;;
14326;SDS011;7247;53.330;-1.180;2024-01-30T08:44:56;1.80;;;1.70;;
14326;SDS011;7247;53.330;-1.180;2024-01-30T08:47:22;2.53;;;1.90;;
14326;SDS011;7247;53.330;-1.180;2024-01-30T08:49:49;1.70;;;1.60;;
14326;SDS011;7247;53.330;-1.180;2024-01-30T08:52:15;2.00;;;1.80;;
14326;SDS011;7247;53.330;-1.180;2024-01-30T08:54:42;1.63;;;1.53;;
14326;SDS011;7247;53.330;-1.180;2024-01-30T08:57:09;1.90;;;1.47;;
14326;SDS011;7247;53.330;-1.180;2024-01-30T08:59:36;1.10;;;1.00;;
14326;SDS011;7247;53.330;-1.180;2024-01-30T09:02:02;2.60;;;0.97;;
14326;SDS011;7247;53.330;-1.180;2024-01-30T09:04:30;0.97;;;0.90;;
14326;SDS011;7247;53.330;-1.180;2024-01-30T09:06:56;1.10;;;1.00;;
14326;SDS011;7247;53.330;-1.180;2024-01-30T09:09:23;1.27;;;0.90;;
14326;SDS011;7247;53.330;-1.180;2024-01-30T09:11:49;2.95;;;2.33;;
14326;SDS011;7247;53.330;-1.180;2024-01-30T09:14:17;2.30;;;1.37;;
14326;SDS011;7247;53.330;-1.180;2024-01-30T09:16:44;1.20;;;1.10;;
14326;SDS011;7247;53.330;-1.180;2024-01-30T09:19:10;1.10;;;1.00;;
14326;SDS011;7247;53.330;-1.180;2024-01-30T09:21:37;1.40;;;1.27;;
14326;SDS011;7247;53.330;-1.180;2024-01-30T09:24:03;1.00;;;1.00;;
14326;SDS011;7247;53.330;-1.180;2024-01-30T09:26:30;23.07;;;2.87;;
14326;SDS011;7247;53.330;-1.180;2024-01-30T09:28:56;2.57;;;1.70;;
14326;SDS011;7247;53.330;-1.180;2024-01-30T09:31:24;2.83;;;1.90;;
14326;SDS011;7247;53.330;-1.180;2024-01-30T09:33:51;1.90;;;1.70;;
14326;SDS011;7247;53.330;-1.180;2024-01-30T09:36:19;6.40;;;1.73;;
14326;SDS011;7247;53.330;-1.180;2024-01-30T09:38:45;11.67;;;1.70;;
14326;SDS011;7247;53.330;-1.180;2024-01-30T09:41:12;1.17;;;1.07;;
14326;SDS011;7247;53.330;-1.180;2024-01-30T09:43:38;1.40;;;1.10;;
14326;SDS011;7247;53.330;-1.180;2024-01-30T09:46:05;3.23;;;1.30;;
14326;SDS011;7247;53.330;-1.180;2024-01-30T09:48:33;2.67;;;1.00;;
14326;SDS011;7247;53.330;-1.180;2024-01-30T09:51:00;1.30;;;1.20;;
14326;SDS011;7247;53.330;-1.180;2024-01-30T09:53:27;2.43;;;1.50;;
14326;SDS011;7247;53.330;-1.180;2024-01-30T09:55:53;1.80;;;1.60;;
14326;SDS011;7247;53.330;-1.180;2024-01-30T09:58:19;2.33;;;1.90;;
14326;SDS011;7247;53.330;-1.180;2024-01-30T10:00:47;2.70;;;2.50;;
14326;SDS011;7247;53.330;-1.180;2024-01-30T10:03:13;3.07;;;2.60;;
14326;SDS011;7247;53.330;-1.180;2024-01-30T10:05:41;3.87;;;3.30;;
14326;SDS011;7247;53.330;-1.180;2024-01-30T10:08:10;3.63;;;3.20;;
14326;SDS011;7247;53.330;-1.180;2024-01-30T10:10:37;5.67;;;5.17;;
14326;SDS011;7247;53.330;-1.180;2024-01-30T10:13:03;2.27;;;1.90;;
14326;SDS011;7247;53.330;-1.180;2024-01-30T10:15:30;1.57;;;1.47;;
14326;SDS011;7247;53.330;-1.180;2024-01-30T10:17:56;3.17;;;2.00;;
14326;SDS011;7247;53.330;-1.180;2024-01-30T10:20:24;3.83;;;3.33;;
14326;SDS011;7247;53.330;-1.180;2024-01-30T10:22:52;2.40;;;2.20;;
14326;SDS011;7247;53.330;-1.180;2024-01-30T10:25:19;1.83;;;1.63;;
14326;SDS011;7247;53.330;-1.180;2024-01-30T10:27:52;0.97;;;0.97;;
14326;SDS011;7247;53.330;-1.180;2024-01-30T10:30:17;1.57;;;1.20;;
14326;SDS011;7247;53.330;-1.180;2024-01-30T10:32:44;2.50;;;2.30;;
14326;SDS011;7247;53.330;-1.180;2024-01-30T10:35:10;1.90;;;1.40;;
14326;SDS011;7247;53.330;-1.180;2024-01-30T10:37:37;1.20;;;1.10;;
14326;SDS011;7247;53.330;-1.180;2024-01-30T10:40:05;0.83;;;0.80;;
14326;SDS011;7247;53.330;-1.180;2024-01-30T10:42:32;0.80;;;0.80;;
14326;SDS011;7247;53.330;-1.180;2024-01-30T10:45:03;0.70;;;0.70;;
14326;SDS011;7247;53.330;-1.180;2024-01-30T10:47:32;1.33;;;0.80;;
14326;SDS011;7247;53.330;-1.180;2024-01-30T10:50:00;0.63;;;0.53;;
14326;SDS011;7247;53.330;-1.180;2024-01-30T10:52:27;1.80;;;0.40;;
14326;SDS011;7247;53.330;-1.180;2024-01-30T10:54:55;0.30;;;0.30;;
14326;SDS011;7247;53.330;-1.180;2024-01-30T10:57:23;0.87;;;0.60;;
14326;SDS011;7247;53.330;-1.180;2024-01-30T10:59:50;0.40;;;0.40;;
14326;SDS011;7247;53.330;-1.180;2024-01-30T11:02:17;0.83;;;0.67;;
14326;SDS011;7247;53.330;-1.180;2024-01-30T11:04:45;0.70;;;0.50;;
14326;SDS011;7247;53.330;-1.180;2024-01-30T11:07:14;0.50;;;0.50;;
14326;SDS011;7247;53.330;-1.180;2024-01-30T11:09:48;0.47;;;0.47;;
14326;SDS011;7247;53.330;-1.180;2024-01-30T11:12:14;0.90;;;0.60;;
14326;SDS011;7247;53.330;-1.180;2024-01-30T11:14:42;0.60;;;0.60;;
14326;SDS011;7247;53.330;-1.180;2024-01-30T11:17:09;0.87;;;0.70;;
14326;SDS011;7247;53.330;-1.180;2024-01-30T11:19:37;0.67;;;0.50;;
14326;SDS011;7247;53.330;-1.180;2024-01-30T11:22:06;0.80;;;0.80;;
14326;SDS011;7247;53.330;-1.180;2024-01-30T11:24:36;0.90;;;0.90;;
14326;SDS011;7247;53.330;-1.180;2024-01-30T11:27:07;1.30;;;1.00;;
14326;SDS011;7247;53.330;-1.180;2024-01-30T11:29:34;1.87;;;0.80;;
14326;SDS011;7247;53.330;-1.180;2024-01-30T11:32:01;1.40;;;1.03;;
14326;SDS011;7247;53.330;-1.180;2024-01-30T11:34:28;1.10;;;1.00;;
14326;SDS011;7247;53.330;-1.180;2024-01-30T11:36:55;1.20;;;1.10;;
14326;SDS011;7247;53.330;-1.180;2024-01-30T11:39:24;0.70;;;0.70;;
14326;SDS011;7247;53.330;-1.180;2024-01-30T11:41:51;0.87;;;0.87;;
14326;SDS011;7247;53.330;-1.180;2024-01-30T11:44:18;1.47;;;0.60;;
14326;SDS011;7247;53.330;-1.180;2024-01-30T11:46:45;1.23;;;0.43;;
14326;SDS011;7247;53.330;-1.180;2024-01-30T11:49:13;0.50;;;0.50;;
14326;SDS011;7247;53.330;-1.180;2024-01-30T11:51:40;1.50;;;0.50;;
14326;SDS011;7247;53.330;-1.180;2024-01-30T11:54:07;1.23;;;0.60;;
14326;SDS011;7247;53.330;-1.180;2024-01-30T11:56:33;0.87;;;0.70;;
14326;SDS011;7247;53.330;-1.180;2024-01-30T11:59:00;1.13;;;0.87;;
14326;SDS011;7247;53.330;-1.180;2024-01-30T12:01:27;1.60;;;0.63;;
14326;SDS011;7247;53.330;-1.180;2024-01-30T12:03:53;1.13;;;0.87;;
14326;SDS011;7247;53.330;-1.180;2024-01-30T12:06:23;1.27;;;1.17;;
14326;SDS011;7247;53.330;-1.180;2024-01-30T12:08:57;1.67;;;1.30;;
14326;SDS011;7247;53.330;-1.180;2024-01-30T12:11:23;1.17;;;1.07;;
14326;SDS011;7247;53.330;-1.180;2024-01-30T12:13:50;9.47;;;1.87;;
14326;SDS011;7247;53.330;-1.180;2024-01-30T12:16:17;2.43;;;1.20;;
14326;SDS011;7247;53.330;-1.180;2024-01-30T12:18:43;8.77;;;2.23;;
14326;SDS011;7247;53.330;-1.180;2024-01-30T12:21:10;1.10;;;1.00;;
14326;SDS011;7247;53.330;-1.180;2024-01-30T12:23:38;2.60;;;1.17;;
14326;SDS011;7247;53.330;-1.180;2024-01-30T12:26:04;1.43;;;1.17;;
14326;SDS011;7247;53.330;-1.180;2024-01-30T12:28:32;2.57;;;1.47;;
14326;SDS011;7247;53.330;-1.180;2024-01-30T12:31:01;1.97;;;1.40;;
14326;SDS011;7247;53.330;-1.180;2024-01-30T12:33:28;2.23;;;1.40;;
14326;SDS011;7247;53.330;-1.180;2024-01-30T12:35:54;1.47;;;1.30;;
14326;SDS011;7247;53.330;-1.180;2024-01-30T12:38:21;2.77;;;1.67;;
14326;SDS011;7247;53.330;-1.180;2024-01-30T12:40:50;2.30;;;1.60;;
14326;SDS011;7247;53.330;-1.180;2024-01-30T12:43:20;1.33;;;1.17;;
14326;SDS011;7247;53.330;-1.180;2024-01-30T12:45:46;1.30;;;1.00;;
14326;SDS011;7247;53.330;-1.180;2024-01-30T12:48:13;1.00;;;0.90;;
14326;SDS011;7247;53.330;-1.180;2024-01-30T12:50:40;1.13;;;0.83;;
14326;SDS011;7247;53.330;-1.180;2024-01-30T12:53:07;1.10;;;1.00;;
14326;SDS011;7247;53.330;-1.180;2024-01-30T12:55:34;0.70;;;0.70;;
14326;SDS011;7247;53.330;-1.180;2024-01-30T12:58:02;1.67;;;0.90;;
14326;SDS011;7247;53.330;-1.180;2024-01-30T13:00:28;1.30;;;1.00;;
14326;SDS011;7247;53.330;-1.180;2024-01-30T13:02:55;1.10;;;1.00;;
14326;SDS011;7247;53.330;-1.180;2024-01-30T13:05:21;1.00;;;1.00;;
14326;SDS011;7247;53.330;-1.180;2024-01-30T13:07:48;1.20;;;1.10;;
14326;SDS011;7247;53.330;-1.180;2024-01-30T13:10:14;1.20;;;1.10;;
14326;SDS011;7247;53.330;-1.180;2024-01-30T13:12:40;1.20;;;1.10;;
14326;SDS011;7247;53.330;-1.180;2024-01-30T13:15:08;1.10;;;1.00;;
14326;SDS011;7247;53.330;-1.180;2024-01-30T13:17:36;1.20;;;1.07;;
14326;SDS011;7247;53.330;-1.180;2024-01-30T13:20:03;1.70;;;1.10;;
14326;SDS011;7247;53.330;-1.180;2024-01-30T13:22:29;1.03;;;0.93;;
14326;SDS011;7247;53.330;-1.180;2024-01-30T13:24:56;1.63;;;1.50;;
14326;SDS011;7247;53.330;-1.180;2024-01-30T13:27:23;3.77;;;1.37;;
14326;SDS011;7247;53.330;-1.180;2024-01-30T13:29:50;1.37;;;1.27;;
14326;SDS011;7247;53.330;-1.180;2024-01-30T13:32:18;2.70;;;1.93;;
14326;SDS011;7247;53.330;-1.180;2024-01-30T13:34:44;0.97;;;0.90;;
14326;SDS011;7247;53.330;-1.180;2024-01-30T13:37:10;2.53;;;1.50;;
14326;SDS011;7247;53.330;-1.180;2024-01-30T13:39:37;1.10;;;1.00;;
14326;SDS011;7247;53.330;-1.180;2024-01-30T13:42:04;1.57;;;0.90;;
14326;SDS011;7247;53.330;-1.180;2024-01-30T13:44:30;0.90;;;0.90;;
14326;SDS011;7247;53.330;-1.180;2024-01-30T13:46:57;1.00;;;0.90;;
14326;SDS011;7247;53.330;-1.180;2024-01-30T13:49:25;2.33;;;1.40;;
14326;SDS011;7247;53.330;-1.180;2024-01-30T13:51:52;2.50;;;1.50;;
14326;SDS011;7247;53.330;-1.180;2024-01-30T13:54:18;1.93;;;1.10;;
14326;SDS011;7247;53.330;-1.180;2024-01-30T13:56:45;1.13;;;1.03;;
14326;SDS011;7247;53.330;-1.180;2024-01-30T13:59:11;1.07;;;1.00;;
14326;SDS011;7247;53.330;-1.180;2024-01-30T14:01:38;1.30;;;0.97;;
14326;SDS011;7247;53.330;-1.180;2024-01-30T14:04:04;1.00;;;0.90;;
14326;SDS011;7247;53.330;-1.180;2024-01-30T14:06:32;1.00;;;0.90;;
14326;SDS011;7247;53.330;-1.180;2024-01-30T14:08:58;1.23;;;1.13;;
14326;SDS011;7247;53.330;-1.180;2024-01-30T14:11:25;1.13;;;1.03;;
14326;SDS011;7247;53.330;-1.180;2024-01-30T14:13:51;2.20;;;1.30;;
14326;SDS011;7247;53.330;-1.180;2024-01-30T14:16:18;1.40;;;1.20;;
14326;SDS011;7247;53.330;-1.180;2024-01-30T14:18:44;2.20;;;1.20;;
14326;SDS011;7247;53.330;-1.180;2024-01-30T14:21:11;1.20;;;1.10;;
14326;SDS011;7247;53.330;-1.180;2024-01-30T14:23:39;1.37;;;1.27;;
14326;SDS011;7247;53.330;-1.180;2024-01-30T14:26:05;1.43;;;1.30;;
14326;SDS011;7247;53.330;-1.180;2024-01-30T14:28:32;1.10;;;0.80;;
14326;SDS011;7247;53.330;-1.180;2024-01-30T14:30:58;0.93;;;0.80;;
14326;SDS011;7247;53.330;-1.180;2024-01-30T14:33:25;1.03;;;0.90;;
14326;SDS011;7247;53.330;-1.180;2024-01-30T14:35:52;1.07;;;0.90;;